createdAt,value
2023-01-19T00:03:44.547Z,3.00
2023-01-19T00:08:51.279Z,3.00
2023-01-19T00:13:54.997Z,3.00
2023-01-19T00:18:58.690Z,3.00
2023-01-19T00:24:03.704Z,3.00
2023-01-19T00:29:07.991Z,3.00
2023-01-19T00:34:11.669Z,3.00
2023-01-19T00:39:16.919Z,3.00
2023-01-19T00:44:20.592Z,3.00
2023-01-19T00:49:24.273Z,3.00
2023-01-19T00:54:29.305Z,2.90
2023-01-19T00:59:33.237Z,2.90
2023-01-19T01:04:37.012Z,2.90
2023-01-19T01:09:42.303Z,3.00
2023-01-19T01:14:46.016Z,3.00
2023-01-19T01:19:49.821Z,3.00
2023-01-19T01:24:54.884Z,3.00
2023-01-19T01:29:58.535Z,3.10
2023-01-19T01:35:02.258Z,3.00
2023-01-19T01:40:09.088Z,3.10
2023-01-19T01:45:35.003Z,3.10
2023-01-19T01:51:02.846Z,3.00
2023-01-19T01:56:13.826Z,2.90
2023-01-19T02:01:34.990Z,2.90
2023-01-19T02:06:56.824Z,2.80
2023-01-19T02:12:19.470Z,2.80
2023-01-19T02:17:23.363Z,2.80
2023-01-19T02:22:36.077Z,2.70
2023-01-19T02:27:41.152Z,2.70
2023-01-19T02:32:45.180Z,2.70
2023-01-19T02:37:49.435Z,2.70
2023-01-19T02:42:58.710Z,2.70
2023-01-19T02:48:02.926Z,2.50
2023-01-19T02:53:22.339Z,2.40
2023-01-19T02:58:34.730Z,2.40
2023-01-19T03:03:48.766Z,2.40
2023-01-19T03:09:02.137Z,2.30
2023-01-19T03:14:12.472Z,2.20
2023-01-19T03:19:22.471Z,2.20
2023-01-19T03:24:29.562Z,2.20
2023-01-19T03:29:36.132Z,2.10
2023-01-19T03:34:41.925Z,2.10
2023-01-19T03:39:45.598Z,2.10
2023-01-19T03:44:53.631Z,2.10
2023-01-19T03:49:58.985Z,2.00
2023-01-19T03:55:04.900Z,2.10
2023-01-19T04:00:11.902Z,2.10
2023-01-19T04:05:19.207Z,2.10
2023-01-19T04:10:23.321Z,2.10
2023-01-19T04:15:29.150Z,2.10
2023-01-19T04:20:33.905Z,2.00
2023-01-19T04:25:38.968Z,2.00
2023-01-19T04:30:44.123Z,2.10
2023-01-19T04:35:48.862Z,2.10
2023-01-19T04:40:53.360Z,2.10
2023-01-19T04:45:58.754Z,2.10
2023-01-19T04:51:02.389Z,2.00
2023-01-19T04:56:06.689Z,2.00
2023-01-19T05:01:11.776Z,2.00
2023-01-19T05:06:15.487Z,2.00
2023-01-19T05:11:19.262Z,2.10
2023-01-19T05:16:24.332Z,2.10
2023-01-19T05:21:28.443Z,2.10
2023-01-19T05:26:32.268Z,2.10
2023-01-19T05:31:38.318Z,2.10
2023-01-19T05:36:42.060Z,2.10
2023-01-19T05:41:45.903Z,2.10
2023-01-19T05:46:50.986Z,2.20
2023-01-19T05:51:54.691Z,2.20
2023-01-19T05:56:58.424Z,2.20
2023-01-19T06:02:03.599Z,2.20
2023-01-19T06:07:07.698Z,2.20
2023-01-19T06:12:11.364Z,2.30
2023-01-19T06:17:16.744Z,2.30
2023-01-19T06:22:20.493Z,2.30
2023-01-19T06:27:24.274Z,2.40
2023-01-19T06:32:30.987Z,2.30
2023-01-19T06:37:35.504Z,2.30
2023-01-19T06:42:39.212Z,2.30
2023-01-19T06:47:44.297Z,2.30
2023-01-19T06:52:51.139Z,2.30
2023-01-19T06:57:58.332Z,2.30
2023-01-19T07:03:03.819Z,2.30
2023-01-19T07:08:07.889Z,2.30
2023-01-19T07:13:11.958Z,2.30
2023-01-19T07:18:17.170Z,2.30
2023-01-19T07:23:20.845Z,2.20
2023-01-19T07:28:24.572Z,2.20
2023-01-19T07:33:29.921Z,2.30
2023-01-19T07:38:33.640Z,2.20
2023-01-19T07:43:37.417Z,2.30
2023-01-19T07:48:44.440Z,2.30
2023-01-19T07:53:48.131Z,2.30
2023-01-19T07:58:52.560Z,2.20
2023-01-19T08:03:57.649Z,2.30
2023-01-19T08:09:01.518Z,2.30
2023-01-19T08:14:07.866Z,2.30
2023-01-19T08:19:13.477Z,2.20
2023-01-19T08:24:21.433Z,2.20
2023-01-19T08:29:25.281Z,2.30
2023-01-19T08:34:32.060Z,2.30
2023-01-19T08:39:35.804Z,2.20
2023-01-19T08:44:46.787Z,2.20
2023-01-19T08:50:02.019Z,2.20
2023-01-19T08:55:07.205Z,2.30
2023-01-19T09:00:12.199Z,2.30
2023-01-19T09:05:17.685Z,2.40
2023-01-19T09:10:21.683Z,2.50
2023-01-19T09:15:25.481Z,2.50
2023-01-19T09:20:31.289Z,2.60
2023-01-19T09:25:35.189Z,2.60
2023-01-19T09:30:39.951Z,2.70
2023-01-19T09:35:47.094Z,2.70
2023-01-19T09:40:53.168Z,2.80
2023-01-19T09:45:59.506Z,2.90
2023-01-19T09:51:08.793Z,3.00
2023-01-19T09:56:15.223Z,3.10
2023-01-19T10:01:35.322Z,3.30
2023-01-19T10:06:40.932Z,3.30
2023-01-19T10:11:53.470Z,3.40
2023-01-19T10:17:09.046Z,3.70
2023-01-19T10:22:21.956Z,4.20
2023-01-19T10:27:29.397Z,4.30
2023-01-19T10:32:36.238Z,4.30
2023-01-19T10:37:42.181Z,4.50
2023-01-19T10:42:46.079Z,4.50
2023-01-19T10:47:52.813Z,4.40
2023-01-19T10:53:00.291Z,4.30
2023-01-19T10:58:04.924Z,4.20
2023-01-19T11:03:24.654Z,4.20
2023-01-19T11:08:31.847Z,4.10
2023-01-19T11:13:36.936Z,4.00
2023-01-19T11:18:42.264Z,4.10
2023-01-19T11:23:51.233Z,4.00
2023-01-19T11:28:57.190Z,4.00
2023-01-19T11:34:04.863Z,4.10
2023-01-19T11:39:24.705Z,4.10
2023-01-19T11:44:32.041Z,4.20
2023-01-19T11:49:45.076Z,4.20
2023-01-19T11:54:57.336Z,4.30
2023-01-19T12:00:05.150Z,4.30
2023-01-19T12:05:20.349Z,4.40
2023-01-19T12:10:29.182Z,4.50
2023-01-19T12:15:38.163Z,4.50
2023-01-19T12:20:45.764Z,4.60
2023-01-19T12:26:07.486Z,4.60
2023-01-19T12:31:14.899Z,4.50
2023-01-19T12:36:37.149Z,4.60
2023-01-19T12:41:43.670Z,4.60
2023-01-19T12:46:49.569Z,4.70
2023-01-19T12:51:56.625Z,4.70
2023-01-19T12:57:03.528Z,4.60
2023-01-19T13:02:38.674Z,4.60
2023-01-19T13:08:20.795Z,4.60
2023-01-19T13:13:27.180Z,4.70
2023-01-19T13:18:35.131Z,4.80
2023-01-19T13:23:55.344Z,4.80
2023-01-19T13:29:08.643Z,4.80
2023-01-19T13:34:15.337Z,4.70
2023-01-19T13:39:25.853Z,4.70
2023-01-19T13:44:36.239Z,4.70
2023-01-19T13:49:43.878Z,4.70
2023-01-19T13:54:53.230Z,4.70
2023-01-19T14:00:12.852Z,4.60
2023-01-19T14:05:17.760Z,4.60
2023-01-19T14:10:21.813Z,4.70
2023-01-19T14:15:27.293Z,4.70
2023-01-19T14:20:32.880Z,4.60
2023-01-19T14:25:38.978Z,4.60
2023-01-19T14:30:54.735Z,4.50
2023-01-19T14:36:09.045Z,4.50
2023-01-19T14:41:13.220Z,4.50
2023-01-19T14:46:23.010Z,4.40
2023-01-19T14:51:29.026Z,4.40
2023-01-19T14:56:35.742Z,4.40
2023-01-19T15:01:41.098Z,4.30
2023-01-19T15:06:45.943Z,4.30
2023-01-19T15:11:52.029Z,4.20
2023-01-19T15:16:59.186Z,4.20
2023-01-19T15:22:02.732Z,4.10
2023-01-19T15:27:06.516Z,4.10
2023-01-19T15:32:15.231Z,4.00
2023-01-19T15:37:19.021Z,4.00
2023-01-19T15:42:22.758Z,3.90
2023-01-19T15:47:27.865Z,3.80
2023-01-19T15:52:31.570Z,3.70
2023-01-19T15:57:35.624Z,3.60
2023-01-19T16:02:40.821Z,3.50
2023-01-19T16:07:44.599Z,3.40
2023-01-19T16:12:48.993Z,3.40
2023-01-19T16:17:54.040Z,3.30
2023-01-19T16:23:09.676Z,3.30
2023-01-19T16:28:17.980Z,3.30
2023-01-19T16:33:23.146Z,3.30
2023-01-19T16:38:27.167Z,3.30
2023-01-19T16:43:31.069Z,3.20
2023-01-19T16:48:36.278Z,3.20
2023-01-19T16:53:40.138Z,3.10
2023-01-19T16:58:44.189Z,3.00
2023-01-19T17:03:49.628Z,3.00
2023-01-19T17:08:54.462Z,2.90
2023-01-19T17:14:00.516Z,2.90
2023-01-19T17:19:07.507Z,2.80
2023-01-19T17:24:11.172Z,2.80
2023-01-19T17:29:14.825Z,2.80
2023-01-19T17:34:20.007Z,2.70
2023-01-19T17:39:23.825Z,2.70
2023-01-19T17:44:27.650Z,2.60
2023-01-19T17:49:32.805Z,2.50
2023-01-19T17:54:36.598Z,2.50
2023-01-19T17:59:55.360Z,2.40
2023-01-19T18:05:02.505Z,2.50
2023-01-19T18:10:07.833Z,2.50
2023-01-19T18:15:12.577Z,2.40
2023-01-19T18:20:18.113Z,2.40
2023-01-19T18:25:21.925Z,2.40
2023-01-19T18:30:25.693Z,2.40
2023-01-19T18:35:30.888Z,2.40
2023-01-19T18:40:34.701Z,2.40
2023-01-19T18:45:39.899Z,2.40
2023-01-19T18:50:45.034Z,2.50
2023-01-19T18:55:52.732Z,2.40
2023-01-19T19:00:56.665Z,2.40
2023-01-19T19:06:05.138Z,2.30
2023-01-19T19:11:09.585Z,2.30
2023-01-19T19:16:14.730Z,2.20
2023-01-19T19:21:24.021Z,2.20
2023-01-19T19:26:29.346Z,2.20
2023-01-19T19:31:33.532Z,2.20
2023-01-19T19:36:38.854Z,2.10
2023-01-19T19:41:42.837Z,2.10
2023-01-19T19:46:46.666Z,2.10
2023-01-19T19:51:51.951Z,2.00
2023-01-19T19:56:55.831Z,2.00
2023-01-19T20:01:59.574Z,2.00
2023-01-19T20:07:04.754Z,1.90
2023-01-19T20:12:09.776Z,2.00
2023-01-19T20:17:13.591Z,1.90
2023-01-19T20:22:18.687Z,1.90
2023-01-19T20:27:22.518Z,1.90
2023-01-19T20:32:26.437Z,1.90
2023-01-19T20:37:31.707Z,1.90
2023-01-19T20:42:36.866Z,1.90
2023-01-19T20:47:40.627Z,1.90
2023-01-19T20:52:45.764Z,2.00
2023-01-19T20:57:49.535Z,2.00
2023-01-19T21:02:53.406Z,2.00
2023-01-19T21:07:58.488Z,2.10
2023-01-19T21:13:02.327Z,2.20
2023-01-19T21:18:06.291Z,2.20
2023-01-19T21:23:11.805Z,2.20
2023-01-19T21:28:16.063Z,2.30
2023-01-19T21:33:20.223Z,2.20
2023-01-19T21:38:27.284Z,2.30
2023-01-19T21:43:31.598Z,2.20
2023-01-19T21:48:35.383Z,2.30
2023-01-19T21:53:40.803Z,2.40
2023-01-19T21:58:46.125Z,2.40
2023-01-19T22:03:50.130Z,2.40
2023-01-19T22:08:55.858Z,2.40
2023-01-19T22:14:00.964Z,2.40
2023-01-19T22:19:07.548Z,2.40
2023-01-19T22:24:12.937Z,2.40
2023-01-19T22:29:16.792Z,2.50
2023-01-19T22:34:20.627Z,2.50
2023-01-19T22:39:25.708Z,2.40
2023-01-19T22:44:29.502Z,2.40
2023-01-19T22:49:33.449Z,2.50
2023-01-19T22:54:38.804Z,2.50
2023-01-19T22:59:43.707Z,2.40
2023-01-19T23:04:47.442Z,2.50
2023-01-19T23:09:52.649Z,2.50
2023-01-19T23:14:56.447Z,2.50
2023-01-19T23:20:00.465Z,2.50
2023-01-19T23:25:06.122Z,2.40
2023-01-19T23:30:11.138Z,2.40
2023-01-19T23:35:15.289Z,2.40
2023-01-19T23:40:21.236Z,2.30
2023-01-19T23:45:24.992Z,2.40
2023-01-19T23:50:28.794Z,2.30
2023-01-19T23:55:33.955Z,2.30
